Time;durP1;ratioP1;P1;durP2;ratioP2;P2;SDS_P1;SDS_P2;PMS_P1;PMS_P2;Temp;Humidity;BMP_temperature;BMP_pressure;BME280_temperature;BME280_humidity;BME280_pressure;Samples;Min_cycle;Max_cycle;Signal;HPM_P1;HPM_P2
2023/10/02 00:02:05;;;;;;;19.80;9.87;;;18.70;1.00;;;;;;5033778;28;20814;-78
2023/10/02 00:04:34;;;;;;;18.70;9.93;;;18.70;1.00;;;;;;5051836;28;20468;-79
2023/10/02 00:07:06;;;;;;;14.87;8.80;;;18.70;1.00;;;;;;5035408;28;20436;-79
2023/10/02 00:09:49;;;;;;;20.13;10.40;;;18.70;1.00;;;;;;5035219;28;20464;-78
2023/10/02 00:12:19;;;;;;;18.50;10.50;;;18.60;1.00;;;;;;5032454;28;20424;-78
2023/10/02 00:14:48;;;;;;;18.87;10.37;;;18.60;55.00;;;;;;5051753;28;20432;-79
2023/10/02 00:17:14;;;;;;;17.83;9.83;;;18.50;99.90;;;;;;5050582;28;20439;-79
2023/10/02 00:19:49;;;;;;;16.27;9.17;;;18.50;99.90;;;;;;5035198;28;21296;-79
2023/10/02 00:22:34;;;;;;;20.07;10.47;;;18.50;99.90;;;;;;5034726;28;20444;-79
2023/10/02 00:25:01;;;;;;;17.43;9.60;;;18.50;99.90;;;;;;5042253;28;20447;-79
2023/10/02 00:27:28;;;;;;;18.13;8.80;;;18.50;99.90;;;;;;5053410;28;20897;-78
2023/10/02 00:29:58;;;;;;;19.37;9.50;;;18.40;99.90;;;;;;5052910;28;20496;-79
2023/10/02 00:32:29;;;;;;;15.93;9.63;;;18.40;99.90;;;;;;5034115;28;20472;-78
2023/10/02 00:34:55;;;;;;;16.77;9.50;;;18.40;92.60;;;;;;5037509;28;20519;-78
2023/10/02 00:37:21;;;;;;;15.37;8.53;;;18.40;46.90;;;;;;5053608;28;20829;-79
2023/10/02 00:39:52;;;;;;;14.30;8.80;;;18.30;99.90;;;;;;5053014;28;20516;-80
2023/10/02 00:42:24;;;;;;;15.43;8.87;;;18.30;99.90;;;;;;5053085;28;20186;-79
2023/10/02 00:44:56;;;;;;;16.87;9.23;;;18.20;99.90;;;;;;5053636;28;20532;-78
2023/10/02 00:47:47;;;;;;;15.83;8.90;;;18.20;99.90;;;;;;5052658;28;20436;-79
2023/10/02 00:50:22;;;;;;;15.30;9.80;;;18.10;99.90;;;;;;5031232;28;20468;-79
2023/10/02 00:52:55;;;;;;;18.70;9.07;;;18.10;1.00;;;;;;5052275;28;20961;-79
2023/10/02 00:55:34;;;;;;;19.50;9.60;;;18.00;99.90;;;;;;5039998;28;20483;-78
2023/10/02 00:58:04;;;;;;;15.60;9.00;;;18.00;1.00;;;;;;5050866;28;20459;-78
2023/10/02 01:00:35;;;;;;;16.73;8.97;;;18.00;1.00;;;;;;5034337;28;20432;-79
2023/10/02 01:03:08;;;;;;;16.90;9.10;;;18.00;1.00;;;;;;5045397;28;20449;-77
2023/10/02 01:05:47;;;;;;;16.50;9.03;;;17.90;1.00;;;;;;5050878;28;20937;-78
2023/10/02 01:08:23;;;;;;;15.50;8.87;;;17.90;1.00;;;;;;5032639;28;20539;-78
2023/10/02 01:11:02;;;;;;;14.20;8.70;;;17.90;1.00;;;;;;5048997;28;21016;-78
2023/10/02 01:13:32;;;;;;;15.20;7.93;;;17.80;99.90;;;;;;5032359;28;21242;-78
2023/10/02 01:16:03;;;;;;;17.53;8.20;;;17.70;99.90;;;;;;5046280;28;20445;-78
2023/10/02 01:18:29;;;;;;;14.90;9.13;;;17.70;99.90;;;;;;5051445;28;20440;-79
2023/10/02 01:21:00;;;;;;;19.03;8.97;;;17.70;1.00;;;;;;5034457;28;20433;-79
2023/10/02 01:23:28;;;;;;;14.43;8.33;;;17.60;1.00;;;;;;5034156;28;20460;-79
2023/10/02 01:25:57;;;;;;;15.10;8.60;;;17.60;1.00;;;;;;5035868;28;20464;-80
2023/10/02 01:28:49;;;;;;;14.17;8.77;;;17.60;1.00;;;;;;5036307;28;20447;-79
2023/10/02 01:34:04;;;;;;;14.23;8.83;;;17.60;1.00;;;;;;5045946;28;20502;-79
2023/10/02 01:36:32;;;;;;;15.00;8.83;;;17.60;1.00;;;;;;5053205;28;20432;-80
2023/10/02 01:39:16;;;;;;;15.73;8.60;;;17.50;1.00;;;;;;5053176;28;20507;-80
2023/10/02 01:41:48;;;;;;;15.80;9.23;;;17.50;1.00;;;;;;5034029;28;20448;-80
2023/10/02 01:44:14;;;;;;;14.90;8.53;;;17.50;5.40;;;;;;5053456;28;20452;-79
2023/10/02 01:46:49;;;;;;;16.20;8.33;;;17.50;6.20;;;;;;5035329;28;20437;-80
2023/10/02 01:49:25;;;;;;;18.47;9.63;;;17.50;99.90;;;;;;5053151;28;20487;-79
2023/10/02 01:52:02;;;;;;;13.67;8.17;;;17.50;15.10;;;;;;5052252;28;20432;-80
2023/10/02 01:54:31;;;;;;;17.20;8.80;;;17.60;5.60;;;;;;5053175;28;21036;-80
2023/10/02 01:56:59;;;;;;;17.23;9.63;;;17.60;5.60;;;;;;5050481;28;20436;-80
2023/10/02 01:59:24;;;;;;;15.83;9.10;;;17.60;99.90;;;;;;5040499;28;20447;-80
2023/10/02 02:01:52;;;;;;;17.50;9.23;;;17.60;99.90;;;;;;5052057;28;20428;-78
2023/10/02 02:04:28;;;;;;;17.13;9.60;;;17.60;99.90;;;;;;5035884;28;20202;-80
2023/10/02 02:06:56;;;;;;;15.57;9.13;;;17.60;99.90;;;;;;5047595;28;20801;-79
2023/10/02 02:09:33;;;;;;;16.70;8.67;;;17.60;99.90;;;;;;5027703;28;20944;-79
2023/10/02 02:12:07;;;;;;;14.27;8.53;;;17.60;99.90;;;;;;5050258;28;20443;-80
2023/10/02 02:14:49;;;;;;;16.10;8.57;;;17.60;99.90;;;;;;5050052;28;20831;-79
2023/10/02 02:17:19;;;;;;;14.80;8.73;;;17.70;99.90;;;;;;5051451;28;20497;-79
2023/10/02 02:19:48;;;;;;;13.90;8.70;;;17.60;99.90;;;;;;5052955;28;21195;-80
2023/10/02 02:22:26;;;;;;;15.73;8.90;;;17.60;99.90;;;;;;5052007;28;20949;-80
2023/10/02 02:24:53;;;;;;;17.40;9.20;;;17.60;99.90;;;;;;5051981;28;20430;-80
2023/10/02 02:27:19;;;;;;;19.43;10.20;;;17.60;99.90;;;;;;5051039;28;20489;-80
2023/10/02 02:29:49;;;;;;;17.23;8.87;;;17.60;99.90;;;;;;5051865;28;20472;-80
2023/10/02 02:32:19;;;;;;;15.10;8.67;;;17.60;99.90;;;;;;5050415;28;20261;-80
2023/10/02 02:34:45;;;;;;;14.87;8.80;;;17.50;99.90;;;;;;5033315;28;20810;-79
2023/10/02 02:37:10;;;;;;;17.10;8.37;;;17.50;99.90;;;;;;5053297;28;21024;-80
2023/10/02 02:39:38;;;;;;;14.17;8.47;;;17.50;99.90;;;;;;5052722;28;20467;-78
2023/10/02 02:42:18;;;;;;;17.63;9.00;;;17.40;1.00;;;;;;5051194;28;20182;-80
2023/10/02 02:44:49;;;;;;;15.30;9.37;;;17.40;1.00;;;;;;5035370;28;20428;-79
2023/10/02 02:47:21;;;;;;;14.10;7.53;;;17.40;1.00;;;;;;5032714;28;20854;-79
2023/10/02 02:49:48;;;;;;;16.53;8.30;;;17.40;1.00;;;;;;5055052;28;20487;-80
2023/10/02 02:52:25;;;;;;;15.70;8.47;;;17.40;1.00;;;;;;5050851;28;20479;-78
2023/10/02 02:54:59;;;;;;;16.63;10.50;;;17.40;1.00;;;;;;5049808;28;21077;-78
2023/10/02 02:57:30;;;;;;;14.87;8.50;;;17.30;1.00;;;;;;5029624;28;20853;-78
2023/10/02 03:02:47;;;;;;;16.40;8.43;;;17.30;1.00;;;;;;5047702;28;20451;-78
2023/10/02 03:05:14;;;;;;;14.53;8.87;;;17.20;27.40;;;;;;5031748;28;20832;-78
2023/10/02 03:07:42;;;;;;;19.70;9.70;;;17.10;5.50;;;;;;5028936;28;20440;-78
2023/10/02 03:10:11;;;;;;;19.37;8.50;;;17.10;99.90;;;;;;5031743;28;20460;-77
2023/10/02 03:12:45;;;;;;;15.53;8.93;;;17.10;99.90;;;;;;5029489;28;20457;-76
2023/10/02 03:15:13;;;;;;;18.03;9.10;;;17.10;99.90;;;;;;5050445;28;20437;-79
2023/10/02 03:17:41;;;;;;;20.27;10.33;;;17.10;99.90;;;;;;5050053;28;20435;-78
2023/10/02 03:20:23;;;;;;;16.40;9.27;;;17.10;1.00;;;;;;5048463;28;20533;-78
2023/10/02 03:22:53;;;;;;;17.40;9.23;;;17.10;1.00;;;;;;5048002;28;20452;-78
2023/10/02 03:25:40;;;;;;;16.93;9.27;;;17.20;1.00;;;;;;5030832;28;20775;-79
2023/10/02 03:28:16;;;;;;;17.20;9.87;;;17.20;1.00;;;;;;5047501;28;20860;-79
2023/10/02 03:30:47;;;;;;;17.33;10.17;;;17.20;1.00;;;;;;5046877;28;20471;-80
2023/10/02 03:33:22;;;;;;;17.87;9.80;;;17.20;1.00;;;;;;5050926;28;20889;-80
2023/10/02 03:36:07;;;;;;;15.73;9.20;;;17.20;1.00;;;;;;5037718;28;20438;-79
2023/10/02 03:38:33;;;;;;;18.50;9.53;;;17.30;99.90;;;;;;5051230;28;20423;-78
2023/10/02 03:41:01;;;;;;;15.50;9.47;;;17.30;99.90;;;;;;5051398;28;20433;-79
2023/10/02 03:46:22;;;;;;;17.43;9.30;;;17.30;99.90;;;;;;5051952;28;20442;-80
2023/10/02 03:48:58;;;;;;;21.57;9.00;;;17.30;99.90;;;;;;5036075;28;20432;-79
2023/10/02 03:51:36;;;;;;;17.93;9.07;;;17.30;99.90;;;;;;5053743;28;20436;-79
2023/10/02 03:54:17;;;;;;;17.60;9.53;;;17.30;99.90;;;;;;5051432;28;20458;-79
2023/10/02 03:56:50;;;;;;;19.77;9.87;;;17.30;99.90;;;;;;5053996;28;20428;-80
2023/10/02 03:59:26;;;;;;;17.70;10.17;;;17.30;99.90;;;;;;5051943;28;20509;-79
2023/10/02 04:02:24;;;;;;;19.00;9.47;;;17.30;99.90;;;;;;5054301;28;20880;-79
2023/10/02 04:04:43;;;;;;;15.50;9.60;;;17.30;99.90;;;;;;5051656;28;20459;-79
2023/10/02 04:07:11;;;;;;;18.50;9.50;;;17.30;99.90;;;;;;5054099;28;20436;-78
2023/10/02 04:09:37;;;;;;;16.93;9.87;;;17.20;99.90;;;;;;5053528;28;20483;-78
2023/10/02 04:12:06;;;;;;;21.50;9.90;;;17.20;99.90;;;;;;5046649;28;20801;-78
2023/10/02 04:14:32;;;;;;;20.03;10.47;;;17.20;99.90;;;;;;5020783;28;20456;-78
2023/10/02 04:19:48;;;;;;;17.87;10.70;;;17.20;99.90;;;;;;5051166;28;20796;-79
2023/10/02 04:22:22;;;;;;;19.30;9.90;;;17.20;99.90;;;;;;5051800;28;20440;-79
2023/10/02 04:24:53;;;;;;;17.43;9.63;;;17.10;99.90;;;;;;5051752;28;20428;-80
2023/10/02 04:28:00;;;;;;;18.10;9.30;;;17.10;99.90;;;;;;5053768;28;20533;-80
2023/10/02 04:32:51;;;;;;;16.37;9.10;;;17.00;1.00;;;;;;5054977;28;20455;-78
2023/10/02 04:38:07;;;;;;;19.67;9.17;;;17.00;1.00;;;;;;5054817;28;20471;-80
2023/10/02 04:40:38;;;;;;;16.50;8.40;;;17.00;1.00;;;;;;5036898;28;20535;-80
2023/10/02 04:43:19;;;;;;;16.53;9.07;;;17.00;1.00;;;;;;5055288;28;20463;-80
2023/10/02 04:45:46;;;;;;;21.60;10.20;;;17.00;1.00;;;;;;5029173;28;20424;-80
2023/10/02 04:48:12;;;;;;;16.60;9.40;;;17.00;1.00;;;;;;5037292;28;20447;-79
2023/10/02 04:50:47;;;;;;;15.90;9.00;;;17.00;1.00;;;;;;5034153;28;20997;-79
2023/10/02 04:55:43;;;;;;;17.90;9.40;;;17.00;99.90;;;;;;5055788;28;20522;-79
2023/10/02 04:58:09;;;;;;;18.00;9.90;;;17.00;99.90;;;;;;5054754;28;20448;-80
2023/10/02 05:00:36;;;;;;;18.97;9.53;;;17.00;99.90;;;;;;5045649;28;20863;-80
2023/10/02 05:03:09;;;;;;;16.93;9.10;;;16.90;99.90;;;;;;5056129;28;20798;-79
2023/10/02 05:05:48;;;;;;;18.30;10.00;;;16.90;99.90;;;;;;5052797;28;20964;-79
2023/10/02 05:08:20;;;;;;;21.87;11.13;;;16.90;99.90;;;;;;5053497;28;20436;-79
2023/10/02 05:10:49;;;;;;;21.33;10.10;;;16.90;99.90;;;;;;5030328;28;21068;-79
2023/10/02 05:13:44;;;;;;;16.60;9.20;;;16.90;99.90;;;;;;5037238;28;20456;-77
2023/10/02 05:16:07;;;;;;;17.77;10.07;;;16.90;99.90;;;;;;5057402;28;20423;-80
2023/10/02 05:18:33;;;;;;;21.30;9.40;;;16.80;99.90;;;;;;5050989;28;20957;-79
2023/10/02 05:21:01;;;;;;;16.03;10.20;;;16.90;1.00;;;;;;5051291;28;20436;-80
2023/10/02 05:23:28;;;;;;;17.30;9.70;;;16.90;1.00;;;;;;5031883;28;20513;-80
2023/10/02 05:25:54;;;;;;;18.53;9.60;;;16.80;1.00;;;;;;5038298;28;20522;-79
2023/10/02 05:28:20;;;;;;;17.80;9.10;;;16.80;1.00;;;;;;5055491;28;20515;-80
2023/10/02 05:30:46;;;;;;;20.87;9.97;;;16.80;1.00;;;;;;5053233;28;20833;-79
2023/10/02 05:33:16;;;;;;;18.73;10.50;;;16.80;1.00;;;;;;5053120;28;20206;-80
2023/10/02 05:35:45;;;;;;;17.80;9.13;;;16.80;1.00;;;;;;5055165;28;20181;-80
2023/10/02 05:38:16;;;;;;;27.43;10.40;;;16.80;1.00;;;;;;5055121;28;20987;-79
2023/10/02 05:40:47;;;;;;;19.07;10.20;;;16.80;99.90;;;;;;5050868;28;20958;-79
2023/10/02 05:43:21;;;;;;;21.73;9.60;;;16.90;99.90;;;;;;5045031;28;20452;-78
2023/10/02 05:48:27;;;;;;;19.53;10.20;;;16.90;99.90;;;;;;5053790;28;20490;-80
2023/10/02 05:50:58;;;;;;;21.03;10.30;;;17.00;99.90;;;;;;5053790;28;20209;-78
2023/10/02 05:53:26;;;;;;;20.03;10.47;;;17.00;58.90;;;;;;5031049;28;20459;-78
2023/10/02 05:56:05;;;;;;;19.87;8.80;;;17.10;1.00;;;;;;5034893;28;21168;-78
2023/10/02 05:58:31;;;;;;;17.97;10.20;;;17.20;1.00;;;;;;5033623;28;20540;-79
2023/10/02 06:01:03;;;;;;;18.43;9.87;;;17.30;99.90;;;;;;5048789;28;20519;-78
2023/10/02 06:03:36;;;;;;;21.00;9.53;;;17.40;1.00;;;;;;5050119;28;20556;-78
2023/10/02 06:06:15;;;;;;;18.87;9.73;;;17.60;1.00;;;;;;5032856;28;20428;-78
2023/10/02 06:08:51;;;;;;;18.40;8.70;;;17.60;20.30;;;;;;5047261;28;20437;-78
2023/10/02 06:11:28;;;;;;;18.43;10.10;;;17.90;99.90;;;;;;5049196;28;20460;-78
2023/10/02 06:14:09;;;;;;;21.23;10.80;;;18.00;1.00;;;;;;5048718;28;20557;-78
2023/10/02 06:16:35;;;;;;;18.33;9.50;;;18.20;1.00;;;;;;5048159;28;20437;-78
2023/10/02 06:19:00;;;;;;;19.87;9.73;;;18.40;99.90;;;;;;5044565;28;20818;-80
2023/10/02 06:21:45;;;;;;;17.97;9.90;;;18.60;1.00;;;;;;5040357;28;20870;-80
2023/10/02 06:24:21;;;;;;;25.30;10.00;;;18.90;99.90;;;;;;5049263;28;20198;-80
2023/10/02 06:26:49;;;;;;;17.63;9.93;;;19.40;1.00;;;;;;5051156;28;20431;-81
2023/10/02 06:29:24;;;;;;;19.20;10.30;;;19.90;99.90;;;;;;5024721;28;20444;-77
2023/10/02 06:32:05;;;;;;;19.93;11.13;;;20.40;99.90;;;;;;5019416;28;20906;-78
2023/10/02 06:34:38;;;;;;;23.87;10.33;;;21.00;19.60;;;;;;5045183;28;20449;-79
2023/10/02 06:37:11;;;;;;;18.80;10.80;;;21.70;1.00;;;;;;5031104;28;20432;-77
2023/10/02 06:40:03;;;;;;;22.87;9.60;;;22.40;1.00;;;;;;5049453;28;20435;-78
2023/10/02 06:42:29;;;;;;;17.10;9.60;;;22.90;1.00;;;;;;5024753;28;20445;-79
2023/10/02 06:44:54;;;;;;;17.53;8.93;;;23.20;99.90;;;;;;5048698;28;20448;-79
2023/10/02 06:47:23;;;;;;;18.67;9.70;;;23.50;99.90;;;;;;5049986;28;20486;-78
2023/10/02 06:49:53;;;;;;;16.37;9.43;;;23.90;99.90;;;;;;5048779;28;20204;-78
2023/10/02 06:52:20;;;;;;;15.57;9.10;;;24.50;99.90;;;;;;5032678;28;20516;-79
2023/10/02 06:54:49;;;;;;;13.77;8.67;;;25.30;99.90;;;;;;5051760;28;20413;-79
2023/10/02 06:57:20;;;;;;;12.70;9.30;;;26.50;99.90;;;;;;5052482;28;20434;-79
2023/10/02 06:59:53;;;;;;;19.70;10.13;;;27.60;99.90;;;;;;5052532;28;20418;-80
2023/10/02 07:02:26;;;;;;;17.20;9.93;;;28.40;99.90;;;;;;5049198;28;20478;-79
2023/10/02 07:04:56;;;;;;;15.77;9.80;;;29.60;99.90;;;;;;5028253;28;20836;-79
2023/10/02 07:07:30;;;;;;;21.63;11.40;;;31.60;99.90;;;;;;5054097;28;20803;-80
2023/10/02 07:10:07;;;;;;;17.33;11.43;;;32.50;99.90;;;;;;5059624;28;20462;-80
2023/10/02 07:12:40;;;;;;;18.03;10.10;;;32.80;99.90;;;;;;5041563;28;20854;-80
2023/10/02 07:15:13;;;;;;;19.33;12.37;;;32.90;99.90;;;;;;5060123;28;20452;-78
2023/10/02 07:17:48;;;;;;;16.90;10.63;;;32.70;99.90;;;;;;5041443;28;20506;-80
2023/10/02 07:20:20;;;;;;;16.37;10.70;;;33.00;99.90;;;;;;5055991;28;20451;-80
2023/10/02 07:22:47;;;;;;;17.50;10.70;;;34.20;99.90;;;;;;5058897;28;20452;-80
2023/10/02 07:25:20;;;;;;;14.80;9.40;;;35.00;99.90;;;;;;5058002;28;20446;-81
2023/10/02 07:27:51;;;;;;;15.87;10.27;;;36.20;99.90;;;;;;5059888;28;20416;-81
2023/10/02 07:30:27;;;;;;;16.00;10.27;;;37.60;99.90;;;;;;5060567;28;20471;-81
2023/10/02 07:32:54;;;;;;;20.10;9.93;;;39.40;99.90;;;;;;5042487;28;20525;-79
2023/10/02 07:35:23;;;;;;;16.63;10.63;;;40.70;99.90;;;;;;5042585;28;20490;-81
2023/10/02 07:37:58;;;;;;;14.67;10.77;;;41.70;99.90;;;;;;5057134;28;20811;-81
2023/10/02 07:40:49;;;;;;;15.80;11.53;;;41.30;99.90;;;;;;5060269;28;20419;-79
2023/10/02 07:43:18;;;;;;;14.83;10.33;;;41.80;99.90;;;;;;5060699;28;20428;-81
2023/10/02 07:46:01;;;;;;;14.53;10.83;;;42.70;99.90;;;;;;5060106;28;20486;-81
2023/10/02 07:48:30;;;;;;;14.07;10.63;;;43.10;99.90;;;;;;5060844;28;20416;-81
2023/10/02 07:50:59;;;;;;;16.93;10.03;;;43.20;99.90;;;;;;5060236;28;20556;-81
2023/10/02 07:53:38;;;;;;;12.57;10.57;;;42.60;99.90;;;;;;5060406;28;20933;-81
2023/10/02 07:56:06;;;;;;;14.20;11.50;;;44.00;99.90;;;;;;5040782;28;20452;-81
2023/10/02 07:58:35;;;;;;;14.40;11.17;;;44.00;99.90;;;;;;5060669;28;20447;-82
2023/10/02 08:01:06;;;;;;;17.43;12.40;;;43.80;99.90;;;;;;5060976;28;20468;-81
2023/10/02 08:03:34;;;;;;;16.30;11.53;;;44.40;99.90;;;;;;5060159;28;20511;-81
2023/10/02 08:06:20;;;;;;;15.10;11.10;;;44.60;99.90;;;;;;5042741;28;20412;-82
2023/10/02 08:11:35;;;;;;;14.60;12.33;;;43.90;99.90;;;;;;5058089;28;20442;-80
2023/10/02 08:14:02;;;;;;;15.70;11.80;;;43.90;99.90;;;;;;5061305;28;20810;-81
2023/10/02 08:16:32;;;;;;;15.93;11.93;;;44.60;99.90;;;;;;5060134;28;20515;-81
2023/10/02 08:18:59;;;;;;;15.20;10.90;;;44.60;99.90;;;;;;5050195;28;20443;-81
2023/10/02 08:21:47;;;;;;;15.73;11.63;;;44.10;99.90;;;;;;5042135;28;20456;-80
2023/10/02 08:24:13;;;;;;;14.67;11.63;;;44.40;99.90;;;;;;5055236;28;20440;-81
2023/10/02 08:26:43;;;;;;;18.27;12.23;;;44.40;99.90;;;;;;5060156;28;20422;-79
2023/10/02 08:29:14;;;;;;;17.87;11.30;;;44.30;99.90;;;;;;5054817;28;20429;-80
2023/10/02 08:31:44;;;;;;;15.50;10.90;;;44.80;99.90;;;;;;5060856;28;20473;-81
2023/10/02 08:34:12;;;;;;;16.23;11.47;;;45.40;99.90;;;;;;5060388;28;20586;-80
2023/10/02 08:36:41;;;;;;;15.63;11.17;;;45.90;99.90;;;;;;5058369;28;20535;-82
2023/10/02 08:39:08;;;;;;;18.23;12.40;;;46.60;99.90;;;;;;5055029;28;20449;-80
2023/10/02 08:41:43;;;;;;;14.70;10.70;;;46.50;99.90;;;;;;5056589;28;20500;-81
2023/10/02 08:44:10;;;;;;;14.33;11.20;;;46.30;99.90;;;;;;5040622;28;20463;-81
2023/10/02 08:46:36;;;;;;;16.40;12.00;;;46.00;99.90;;;;;;5058534;28;20420;-81
2023/10/02 08:49:03;;;;;;;16.20;12.57;;;45.60;99.90;;;;;;5060069;28;20409;-81
2023/10/02 08:51:38;;;;;;;14.97;11.30;;;45.70;99.90;;;;;;5059757;28;20181;-81
2023/10/02 08:54:07;;;;;;;17.00;11.40;;;46.10;99.90;;;;;;5055804;28;20909;-80
2023/10/02 08:56:48;;;;;;;15.23;10.97;;;46.50;99.90;;;;;;5054943;28;20416;-80
2023/10/02 08:59:18;;;;;;;18.00;11.90;;;46.80;99.90;;;;;;5054264;28;20467;-81
2023/10/02 09:01:47;;;;;;;17.83;12.10;;;46.60;99.90;;;;;;5035896;28;20440;-81
2023/10/02 09:04:28;;;;;;;14.87;12.53;;;46.90;99.90;;;;;;5053661;28;20435;-80
2023/10/02 09:07:14;;;;;;;15.43;12.13;;;47.10;99.90;;;;;;5053685;28;20416;-80
2023/10/02 09:09:45;;;;;;;15.00;11.80;;;47.50;99.90;;;;;;5035802;28;20465;-80
2023/10/02 09:12:17;;;;;;;18.90;12.93;;;47.90;99.90;;;;;;5054000;28;20917;-80
2023/10/02 09:14:43;;;;;;;18.40;12.90;;;;;;;;;;5054872;28;21067;-80
2023/10/02 09:17:16;;;;;;;19.77;12.30;;;;;;;;;;5053271;28;20431;-80
2023/10/02 09:19:54;;;;;;;15.63;12.30;;;;;;;;;;5050410;28;20468;-80
2023/10/02 09:22:25;;;;;;;14.43;11.93;;;;;;;;;;5035084;28;20452;-80
2023/10/02 09:25:18;;;;;;;19.67;13.10;;;;;;;;;;5052426;28;20408;-81
2023/10/02 09:28:13;;;;;;;14.90;11.90;;;48.40;1.00;;;;;;5052925;28;20436;-80
2023/10/02 09:30:41;;;;;;;16.03;12.80;;;48.50;1.00;;;;;;5050429;28;20515;-81
2023/10/02 09:33:22;;;;;;;15.10;12.37;;;48.90;1.00;;;;;;5035169;28;20521;-81
2023/10/02 09:35:51;;;;;;;15.90;12.50;;;48.90;1.00;;;;;;5050648;28;20447;-79
2023/10/02 09:38:17;;;;;;;17.37;11.70;;;48.60;1.00;;;;;;5055673;28;20415;-80
2023/10/02 09:40:58;;;;;;;16.40;12.50;;;48.70;1.00;;;;;;5054706;28;21021;-80
2023/10/02 09:43:24;;;;;;;15.77;12.97;;;48.50;1.00;;;;;;5054391;28;20435;-81
2023/10/02 09:45:55;;;;;;;21.43;13.50;;;48.30;1.00;;;;;;5054824;28;20974;-81
2023/10/02 09:51:14;;;;;;;14.67;12.20;;;49.30;1.00;;;;;;5050535;28;20411;-79
2023/10/02 09:54:04;;;;;;;18.53;12.20;;;49.30;1.00;;;;;;5052788;28;20455;-78
2023/10/02 09:56:52;;;;;;;18.70;12.60;;;48.20;1.00;;;;;;5035541;28;20424;-79
2023/10/02 09:59:24;;;;;;;17.13;13.33;;;47.90;1.00;;;;;;5053070;28;20444;-79
2023/10/02 10:02:08;;;;;;;16.90;12.77;;;46.60;1.00;;;;;;5052917;28;20421;-79
2023/10/02 10:10:46;;;;;;;17.73;13.13;;;46.20;1.00;;;;;;5049653;28;20428;-79
2023/10/02 10:13:31;;;;;;;15.80;12.07;;;46.00;1.00;;;;;;5050840;28;20490;-78
2023/10/02 10:16:20;;;;;;;13.43;11.27;;;46.20;1.00;;;;;;5053204;28;20420;-79
2023/10/02 10:22:01;;;;;;;14.53;11.57;;;45.60;1.00;;;;;;5053220;28;20454;-79
2023/10/02 10:24:33;;;;;;;19.03;14.03;;;45.80;1.00;;;;;;5036978;28;20455;-80
2023/10/02 10:27:01;;;;;;;15.70;12.37;;;46.00;1.00;;;;;;5045185;28;20482;-79
2023/10/02 10:29:42;;;;;;;20.30;13.07;;;46.40;1.00;;;;;;5053526;28;20424;-79
2023/10/02 10:32:24;;;;;;;15.77;12.57;;;46.80;1.00;;;;;;5052905;28;20443;-79
2023/10/02 10:35:17;;;;;;;18.63;13.00;;;46.90;1.00;;;;;;5053073;28;20820;-79
2023/10/02 10:37:47;;;;;;;16.20;13.33;;;47.00;1.00;;;;;;5053207;28;20424;-79
2023/10/02 10:40:44;;;;;;;18.47;13.73;;;47.00;1.00;;;;;;5048947;28;20784;-80
2023/10/02 10:43:13;;;;;;;15.00;11.67;;;47.20;1.00;;;;;;5055419;28;20526;-79
2023/10/02 10:45:40;;;;;;;17.40;12.17;;;47.40;1.00;;;;;;5057364;28;20423;-79
2023/10/02 10:48:19;;;;;;;15.80;12.27;;;47.60;1.00;;;;;;5057357;28;20423;-79
2023/10/02 10:50:57;;;;;;;15.70;13.10;;;;;;;;;;5056259;28;20487;-79
2023/10/02 10:53:27;;;;;;;15.67;11.73;;;;;;;;;;5052191;28;20523;-79
2023/10/02 10:55:56;;;;;;;15.87;12.87;;;;;;;;;;5057544;28;20440;-79
2023/10/02 10:58:35;;;;;;;15.77;12.30;;;;;;;;;;5054352;28;20454;-80
2023/10/02 11:01:03;;;;;;;16.87;12.63;;;;;;;;;;5057418;28;20493;-79
2023/10/02 11:03:30;;;;;;;16.47;13.00;;;;;;;;;;5056950;28;20432;-79
2023/10/02 11:06:02;;;;;;;16.30;12.87;;;;;;;;;;5057111;28;20429;-79
2023/10/02 11:08:28;;;;;;;15.70;11.97;;;;;;;;;;5056823;28;20578;-80
2023/10/02 11:11:01;;;;;;;16.87;12.30;;;;;;;;;;5039161;28;21008;-79
2023/10/02 11:13:28;;;;;;;16.30;11.13;;;;;;;;;;5054116;28;20498;-79
2023/10/02 11:16:07;;;;;;;15.33;12.33;;;46.70;1.00;;;;;;5039238;28;20451;-79
2023/10/02 11:18:38;;;;;;;15.37;12.37;;;46.40;1.00;;;;;;5053523;28;21115;-78
2023/10/02 11:21:21;;;;;;;15.90;12.17;;;46.60;1.00;;;;;;5055994;28;20558;-78
2023/10/02 11:23:48;;;;;;;17.80;13.47;;;46.50;1.00;;;;;;5055117;28;20447;-78
2023/10/02 11:26:14;;;;;;;16.97;11.63;;;45.90;1.00;;;;;;5055569;28;20423;-79
2023/10/02 11:28:41;;;;;;;25.43;12.60;;;46.10;1.00;;;;;;5055787;28;20921;-78
2023/10/02 11:31:35;;;;;;;18.13;12.23;;;46.30;1.00;;;;;;5037912;28;20492;-78
2023/10/02 11:34:10;;;;;;;18.10;12.30;;;46.50;1.00;;;;;;5055945;28;20515;-78
2023/10/02 11:36:38;;;;;;;15.93;11.90;;;46.40;1.00;;;;;;5053136;28;20436;-78
2023/10/02 11:39:09;;;;;;;15.97;11.27;;;46.00;1.00;;;;;;5047906;28;20488;-79
2023/10/02 11:41:39;;;;;;;16.40;12.23;;;46.10;1.00;;;;;;5055452;28;20428;-79
2023/10/02 11:44:06;;;;;;;21.10;12.43;;;46.20;1.00;;;;;;5055558;28;20462;-79
2023/10/02 11:46:32;;;;;;;15.90;11.77;;;45.80;1.00;;;;;;5055322;28;20787;-78
2023/10/02 11:48:58;;;;;;;14.70;11.90;;;45.70;1.00;;;;;;5055541;28;20405;-79
2023/10/02 11:51:28;;;;;;;16.73;12.60;;;45.60;1.00;;;;;;5055240;28;20194;-79
2023/10/02 11:53:57;;;;;;;17.33;12.13;;;45.20;1.00;;;;;;5054185;28;20221;-79
2023/10/02 11:56:24;;;;;;;16.50;12.67;;;45.30;1.00;;;;;;5054557;28;20436;-78
2023/10/02 11:58:52;;;;;;;15.17;11.63;;;44.80;1.00;;;;;;5054149;28;20856;-78
2023/10/02 12:01:21;;;;;;;14.73;12.13;;;44.60;1.00;;;;;;5054456;28;20463;-78
2023/10/02 12:03:48;;;;;;;13.63;10.03;;;;;;;;;;5054349;28;20436;-78
2023/10/02 12:06:14;;;;;;;17.60;11.50;;;;;;;;;;5037371;28;20428;-78
2023/10/02 12:08:40;;;;;;;17.10;10.90;;;;;;;;;;5054200;28;20764;-79
2023/10/02 12:11:08;;;;;;;15.70;11.50;;;;;;;;;;5051665;28;20484;-78
2023/10/02 12:13:34;;;;;;;16.00;10.37;;;;;;;;;;5051024;28;20480;-78
2023/10/02 12:16:02;;;;;;;14.47;10.10;;;;;;;;;;5054656;28;20432;-79
2023/10/02 12:18:30;;;;;;;14.03;10.30;;;;;;;;;;5037283;28;20421;-80
2023/10/02 12:20:56;;;;;;;14.57;8.97;;;;;;;;;;5052591;28;20475;-80
2023/10/02 12:23:22;;;;;;;13.57;9.00;;;;;;;;;;5054803;28;20444;-80
2023/10/02 12:25:48;;;;;;;13.43;9.20;;;;;;;;;;5043998;28;20417;-80
2023/10/02 12:28:15;;;;;;;14.70;10.27;;;;;;;;;;5056277;28;20417;-81
2023/10/02 12:30:41;;;;;;;13.57;9.57;;;;;;;;;;5056079;28;20420;-80
2023/10/02 12:33:09;;;;;;;14.43;9.57;;;;;;;;;;5055983;28;20444;-79
2023/10/02 12:35:36;;;;;;;12.87;9.20;;;;;;;;;;5056380;28;20424;-80
2023/10/02 12:38:02;;;;;;;13.70;9.17;;;;;;;;;;5040184;28;20448;-80
2023/10/02 12:40:31;;;;;;;12.63;8.50;;;;;;;;;;5054798;28;20973;-80
2023/10/02 12:43:04;;;;;;;13.20;9.20;;;;;;;;;;5036926;28;20445;-80
2023/10/02 12:45:36;;;;;;;14.90;8.10;;;;;;;;;;5057208;28;20416;-80
2023/10/02 12:48:06;;;;;;;14.53;9.23;;;;;;;;;;5058318;28;20428;-81
2023/10/02 12:50:37;;;;;;;12.80;8.30;;;;;;;;;;5058869;28;20420;-80
2023/10/02 12:53:04;;;;;;;11.80;8.13;;;;;;;;;;5056227;28;20459;-81
2023/10/02 12:55:30;;;;;;;12.33;7.97;;;;;;;;;;5055781;28;20435;-80
2023/10/02 12:57:56;;;;;;;14.47;8.90;;;;;;;;;;5058600;28;20444;-79
2023/10/02 13:00:24;;;;;;;14.83;9.27;;;;;;;;;;5041089;28;21081;-81
2023/10/02 13:02:50;;;;;;;14.60;9.97;;;;;;;;;;5057912;28;20190;-80
2023/10/02 13:05:16;;;;;;;12.00;8.70;;;;;;;;;;5040776;28;20478;-80
2023/10/02 13:07:44;;;;;;;14.00;9.87;;;;;;;;;;5040695;28;20720;-80
2023/10/02 13:10:10;;;;;;;14.40;9.10;;;;;;;;;;5040795;28;20424;-80
2023/10/02 13:12:36;;;;;;;12.50;8.47;;;;;;;;;;5055490;28;20463;-80
2023/10/02 13:15:03;;;;;;;12.87;8.17;;;;;;;;;;5057990;28;20182;-81
2023/10/02 13:17:31;;;;;;;12.13;8.30;;;;;;;;;;5058118;28;20475;-80
2023/10/02 13:19:58;;;;;;;13.87;8.53;;;;;;;;;;5058007;28;20500;-80
2023/10/02 13:22:24;;;;;;;13.10;8.77;;;;;;;;;;5058370;28;20980;-80
2023/10/02 13:24:50;;;;;;;17.37;9.13;;;;;;;;;;5058134;28;20413;-80
2023/10/02 13:27:17;;;;;;;11.80;9.00;;;;;;;;;;5057732;28;20508;-80
2023/10/02 13:29:44;;;;;;;14.13;9.67;;;;;;;;;;5055419;28;20420;-82
2023/10/02 13:32:10;;;;;;;13.33;8.50;;;;;;;;;;5057850;28;20437;-80
2023/10/02 13:34:36;;;;;;;10.80;8.30;;;;;;;;;;5058471;28;20437;-80
2023/10/02 13:37:02;;;;;;;11.80;8.73;;;;;;;;;;5058524;28;20424;-81
2023/10/02 13:39:29;;;;;;;14.60;9.10;;;;;;;;;;5057978;28;20417;-80
2023/10/02 13:41:56;;;;;;;15.13;8.33;;;;;;;;;;5058410;28;20416;-80
2023/10/02 13:44:22;;;;;;;12.33;8.30;;;;;;;;;;5057873;28;20862;-80
2023/10/02 13:46:51;;;;;;;12.57;8.63;;;;;;;;;;5055127;28;20440;-81
2023/10/02 13:49:19;;;;;;;11.60;8.47;;;;;;;;;;5058774;28;20983;-80
2023/10/02 13:51:45;;;;;;;11.90;8.53;;;;;;;;;;5058062;28;20415;-80
2023/10/02 13:54:11;;;;;;;16.53;9.50;;;;;;;;;;5057206;28;20462;-80
2023/10/02 13:56:37;;;;;;;14.80;9.47;;;;;;;;;;5057509;28;20682;-80